sensor_id;sensor_type;location;lat;lon;timestamp;pressure;altitude;pressure_sealevel;temperature
12430;BMP280;6279;42.192;24.326;2022-08-30T00:01:25;98944.81;;;24.44
12430;BMP280;6279;42.192;24.326;2022-08-30T00:03:52;98942.41;;;24.43
12430;BMP280;6279;42.192;24.326;2022-08-30T00:06:20;98938.91;;;24.38
12430;BMP280;6279;42.192;24.326;2022-08-30T00:08:46;98949.84;;;24.41
12430;BMP280;6279;42.192;24.326;2022-08-30T00:11:18;98952.25;;;24.42
12430;BMP280;6279;42.192;24.326;2022-08-30T00:13:46;98949.28;;;24.34
12430;BMP280;6279;42.192;24.326;2022-08-30T00:16:12;98950.88;;;24.35
12430;BMP280;6279;42.192;24.326;2022-08-30T00:18:39;98947.66;;;24.33
12430;BMP280;6279;42.192;24.326;2022-08-30T00:21:05;98948.22;;;24.35
12430;BMP280;6279;42.192;24.326;2022-08-30T00:23:31;98942.34;;;24.33
12430;BMP280;6279;42.192;24.326;2022-08-30T00:25:58;98945.03;;;24.38
12430;BMP280;6279;42.192;24.326;2022-08-30T00:28:23;98950.34;;;24.38
12430;BMP280;6279;42.192;24.326;2022-08-30T00:30:49;98949.59;;;24.42
12430;BMP280;6279;42.192;24.326;2022-08-30T00:33:15;98947.50;;;24.49
12430;BMP280;6279;42.192;24.326;2022-08-30T00:35:41;98950.41;;;24.48
12430;BMP280;6279;42.192;24.326;2022-08-30T00:38:08;98951.97;;;24.44
12430;BMP280;6279;42.192;24.326;2022-08-30T00:40:35;98954.13;;;24.47
12430;BMP280;6279;42.192;24.326;2022-08-30T00:43:05;98960.19;;;24.38
12430;BMP280;6279;42.192;24.326;2022-08-30T00:45:35;98951.28;;;24.22
12430;BMP280;6279;42.192;24.326;2022-08-30T00:48:02;98958.97;;;24.19
12430;BMP280;6279;42.192;24.326;2022-08-30T00:50:37;98959.22;;;24.18
12430;BMP280;6279;42.192;24.326;2022-08-30T00:53:06;98965.28;;;24.13
12430;BMP280;6279;42.192;24.326;2022-08-30T00:55:32;98959.06;;;24.03
12430;BMP280;6279;42.192;24.326;2022-08-30T00:58:01;98954.00;;;24.01
12430;BMP280;6279;42.192;24.326;2022-08-30T01:00:27;98970.75;;;24.02
12430;BMP280;6279;42.192;24.326;2022-08-30T01:02:53;98968.97;;;24.07
12430;BMP280;6279;42.192;24.326;2022-08-30T01:05:20;98967.81;;;23.98
12430;BMP280;6279;42.192;24.326;2022-08-30T01:07:45;98972.00;;;23.95
12430;BMP280;6279;42.192;24.326;2022-08-30T01:10:12;98975.97;;;23.92
12430;BMP280;6279;42.192;24.326;2022-08-30T01:12:40;98967.53;;;24.00
12430;BMP280;6279;42.192;24.326;2022-08-30T01:15:08;98971.56;;;24.02
12430;BMP280;6279;42.192;24.326;2022-08-30T01:17:33;98964.16;;;24.04
12430;BMP280;6279;42.192;24.326;2022-08-30T01:20:05;98964.38;;;24.03
12430;BMP280;6279;42.192;24.326;2022-08-30T01:24:58;98961.19;;;24.01
12430;BMP280;6279;42.192;24.326;2022-08-30T01:27:25;98962.22;;;24.00
12430;BMP280;6279;42.192;24.326;2022-08-30T01:29:52;98961.38;;;23.95
12430;BMP280;6279;42.192;24.326;2022-08-30T01:32:23;98962.88;;;23.86
12430;BMP280;6279;42.192;24.326;2022-08-30T01:34:49;98959.94;;;23.82
12430;BMP280;6279;42.192;24.326;2022-08-30T01:37:16;98959.28;;;23.71
12430;BMP280;6279;42.192;24.326;2022-08-30T01:39:45;98954.97;;;23.65
12430;BMP280;6279;42.192;24.326;2022-08-30T01:42:11;98948.00;;;23.59
12430;BMP280;6279;42.192;24.326;2022-08-30T01:44:37;98955.16;;;23.58
12430;BMP280;6279;42.192;24.326;2022-08-30T01:47:03;98948.50;;;23.56
12430;BMP280;6279;42.192;24.326;2022-08-30T01:49:29;98955.38;;;23.52
12430;BMP280;6279;42.192;24.326;2022-08-30T01:51:55;98949.25;;;23.52
12430;BMP280;6279;42.192;24.326;2022-08-30T01:54:21;98952.72;;;23.52
12430;BMP280;6279;42.192;24.326;2022-08-30T01:56:46;98948.69;;;23.50
12430;BMP280;6279;42.192;24.326;2022-08-30T01:59:12;98929.91;;;23.35
12430;BMP280;6279;42.192;24.326;2022-08-30T02:01:37;98939.72;;;23.34
12430;BMP280;6279;42.192;24.326;2022-08-30T02:04:05;98934.94;;;23.31
12430;BMP280;6279;42.192;24.326;2022-08-30T02:06:31;98938.94;;;23.34
12430;BMP280;6279;42.192;24.326;2022-08-30T02:08:56;98938.13;;;23.33
12430;BMP280;6279;42.192;24.326;2022-08-30T02:11:22;98935.34;;;23.24
12430;BMP280;6279;42.192;24.326;2022-08-30T02:13:48;98947.09;;;23.28
12430;BMP280;6279;42.192;24.326;2022-08-30T02:16:17;98938.50;;;23.21
12430;BMP280;6279;42.192;24.326;2022-08-30T02:18:44;98940.09;;;23.22
12430;BMP280;6279;42.192;24.326;2022-08-30T02:21:10;98936.16;;;23.24
12430;BMP280;6279;42.192;24.326;2022-08-30T02:23:36;98933.03;;;23.27
12430;BMP280;6279;42.192;24.326;2022-08-30T02:26:01;98938.63;;;23.30
12430;BMP280;6279;42.192;24.326;2022-08-30T02:28:27;98945.53;;;23.31
12430;BMP280;6279;42.192;24.326;2022-08-30T02:30:53;98942.09;;;23.31
12430;BMP280;6279;42.192;24.326;2022-08-30T02:33:19;98950.34;;;23.34
12430;BMP280;6279;42.192;24.326;2022-08-30T02:35:44;98950.06;;;23.31
12430;BMP280;6279;42.192;24.326;2022-08-30T02:38:10;98946.53;;;23.26
12430;BMP280;6279;42.192;24.326;2022-08-30T02:40:36;98944.13;;;23.24
12430;BMP280;6279;42.192;24.326;2022-08-30T02:43:01;98950.25;;;23.25
12430;BMP280;6279;42.192;24.326;2022-08-30T02:45:27;98945.91;;;23.19
12430;BMP280;6279;42.192;24.326;2022-08-30T02:47:53;98939.75;;;23.13
12430;BMP280;6279;42.192;24.326;2022-08-30T02:50:21;98939.81;;;22.97
12430;BMP280;6279;42.192;24.326;2022-08-30T02:52:47;98935.81;;;22.95
12430;BMP280;6279;42.192;24.326;2022-08-30T02:55:13;98939.81;;;22.97
12430;BMP280;6279;42.192;24.326;2022-08-30T02:57:38;98937.22;;;23.02
12430;BMP280;6279;42.192;24.326;2022-08-30T03:00:07;98937.16;;;22.97
12430;BMP280;6279;42.192;24.326;2022-08-30T03:02:32;98937.16;;;22.97
12430;BMP280;6279;42.192;24.326;2022-08-30T03:04:58;98937.47;;;23.01
12430;BMP280;6279;42.192;24.326;2022-08-30T03:07:23;98935.06;;;22.99
12430;BMP280;6279;42.192;24.326;2022-08-30T03:09:49;98941.34;;;22.93
12430;BMP280;6279;42.192;24.326;2022-08-30T03:12:15;98934.75;;;22.96
12430;BMP280;6279;42.192;24.326;2022-08-30T03:14:40;98941.84;;;22.90
12430;BMP280;6279;42.192;24.326;2022-08-30T03:17:07;98940.00;;;22.91
12430;BMP280;6279;42.192;24.326;2022-08-30T03:19:34;98941.34;;;22.93
12430;BMP280;6279;42.192;24.326;2022-08-30T03:22:04;98944.81;;;22.94
12430;BMP280;6279;42.192;24.326;2022-08-30T03:24:30;98944.75;;;22.89
12430;BMP280;6279;42.192;24.326;2022-08-30T03:26:55;98943.31;;;22.82
12430;BMP280;6279;42.192;24.326;2022-08-30T03:29:21;98949.53;;;22.71
12430;BMP280;6279;42.192;24.326;2022-08-30T03:31:47;98945.25;;;22.70
12430;BMP280;6279;42.192;24.326;2022-08-30T03:34:13;98950.56;;;22.70
12430;BMP280;6279;42.192;24.326;2022-08-30T03:36:38;98945.91;;;22.61
12430;BMP280;6279;42.192;24.326;2022-08-30T03:39:05;98942.38;;;22.55
12430;BMP280;6279;42.192;24.326;2022-08-30T03:41:31;98949.91;;;22.63
12430;BMP280;6279;42.192;24.326;2022-08-30T03:43:58;98951.06;;;22.67
12430;BMP280;6279;42.192;24.326;2022-08-30T03:46:23;98949.06;;;22.74
12430;BMP280;6279;42.192;24.326;2022-08-30T03:48:49;98947.25;;;22.79
12430;BMP280;6279;42.192;24.326;2022-08-30T03:51:16;98945.66;;;22.78
12430;BMP280;6279;42.192;24.326;2022-08-30T03:53:42;98951.75;;;22.79
12430;BMP280;6279;42.192;24.326;2022-08-30T03:56:07;98949.97;;;22.84
12430;BMP280;6279;42.192;24.326;2022-08-30T03:58:33;98954.88;;;22.92
12430;BMP280;6279;42.192;24.326;2022-08-30T04:00:59;98957.44;;;22.87
12430;BMP280;6279;42.192;24.326;2022-08-30T04:03:24;98954.88;;;22.92
12430;BMP280;6279;42.192;24.326;2022-08-30T04:05:54;98965.31;;;22.82
12430;BMP280;6279;42.192;24.326;2022-08-30T04:08:20;98956.63;;;22.86
12430;BMP280;6279;42.192;24.326;2022-08-30T04:10:46;98960.09;;;22.87
12430;BMP280;6279;42.192;24.326;2022-08-30T04:13:13;98967.06;;;22.93
12430;BMP280;6279;42.192;24.326;2022-08-30T04:15:38;98972.13;;;22.94
12430;BMP280;6279;42.192;24.326;2022-08-30T04:18:04;98978.34;;;23.05
12430;BMP280;6279;42.192;24.326;2022-08-30T04:20:30;98968.25;;;23.02
12430;BMP280;6279;42.192;24.326;2022-08-30T04:22:55;98973.63;;;23.07
12430;BMP280;6279;42.192;24.326;2022-08-30T04:25:21;98974.78;;;23.15
12430;BMP280;6279;42.192;24.326;2022-08-30T04:27:46;98983.56;;;23.16
12430;BMP280;6279;42.192;24.326;2022-08-30T04:30:13;98977.34;;;23.27
12430;BMP280;6279;42.192;24.326;2022-08-30T04:32:39;98984.38;;;23.37
12430;BMP280;6279;42.192;24.326;2022-08-30T04:35:05;98979.75;;;23.49
12430;BMP280;6279;42.192;24.326;2022-08-30T04:37:31;98987.91;;;23.64
12430;BMP280;6279;42.192;24.326;2022-08-30T04:39:57;98992.19;;;23.70
12430;BMP280;6279;42.192;24.326;2022-08-30T04:42:25;98996.06;;;23.83
12430;BMP280;6279;42.192;24.326;2022-08-30T04:44:52;99007.09;;;23.97
12430;BMP280;6279;42.192;24.326;2022-08-30T04:47:17;99001.66;;;24.08
12430;BMP280;6279;42.192;24.326;2022-08-30T04:49:43;98992.22;;;24.21
12430;BMP280;6279;42.192;24.326;2022-08-30T04:52:08;98992.00;;;24.28
12430;BMP280;6279;42.192;24.326;2022-08-30T04:54:35;99001.94;;;24.37
12430;BMP280;6279;42.192;24.326;2022-08-30T04:57:00;99002.00;;;24.47
12430;BMP280;6279;42.192;24.326;2022-08-30T04:59:26;98999.88;;;24.49
12430;BMP280;6279;42.192;24.326;2022-08-30T05:01:51;98997.28;;;24.54
12430;BMP280;6279;42.192;24.326;2022-08-30T05:04:17;99006.44;;;24.67
12430;BMP280;6279;42.192;24.326;2022-08-30T05:06:42;99004.91;;;24.76
12430;BMP280;6279;42.192;24.326;2022-08-30T05:09:08;99012.38;;;24.79
12430;BMP280;6279;42.192;24.326;2022-08-30T05:11:33;99011.28;;;24.75
12430;BMP280;6279;42.192;24.326;2022-08-30T05:13:58;99012.88;;;24.76
12430;BMP280;6279;42.192;24.326;2022-08-30T05:16:24;99013.94;;;24.75
12430;BMP280;6279;42.192;24.326;2022-08-30T05:18:50;99019.28;;;24.80
12430;BMP280;6279;42.192;24.326;2022-08-30T05:21:22;99008.19;;;24.88
12430;BMP280;6279;42.192;24.326;2022-08-30T05:23:51;99008.22;;;24.93
12430;BMP280;6279;42.192;24.326;2022-08-30T05:26:20;99009.56;;;24.95
12430;BMP280;6279;42.192;24.326;2022-08-30T05:28:46;99007.75;;;25.06
12430;BMP280;6279;42.192;24.326;2022-08-30T05:31:15;99009.91;;;25.13
12430;BMP280;6279;42.192;24.326;2022-08-30T05:33:41;99009.94;;;25.18
12430;BMP280;6279;42.192;24.326;2022-08-30T05:36:08;99011.88;;;25.28
12430;BMP280;6279;42.192;24.326;2022-08-30T05:38:34;99008.72;;;25.35
12430;BMP280;6279;42.192;24.326;2022-08-30T05:40:59;98998.16;;;25.55
12430;BMP280;6279;42.192;24.326;2022-08-30T05:43:25;99009.97;;;25.78
12430;BMP280;6279;42.192;24.326;2022-08-30T05:46:04;99015.63;;;26.01
12430;BMP280;6279;42.192;24.326;2022-08-30T05:48:31;99014.56;;;26.07
12430;BMP280;6279;42.192;24.326;2022-08-30T05:53:29;99023.16;;;26.29
12430;BMP280;6279;42.192;24.326;2022-08-30T05:55:54;99013.00;;;26.40
12430;BMP280;6279;42.192;24.326;2022-08-30T05:58:19;99014.88;;;26.60
12430;BMP280;6279;42.192;24.326;2022-08-30T06:00:45;99017.28;;;26.85
12430;BMP280;6279;42.192;24.326;2022-08-30T06:03:11;99014.81;;;27.08
12430;BMP280;6279;42.192;24.326;2022-08-30T06:05:37;99013.97;;;27.37
12430;BMP280;6279;42.192;24.326;2022-08-30T06:08:03;99012.47;;;27.69
12430;BMP280;6279;42.192;24.326;2022-08-30T06:10:29;99008.63;;;27.95
12430;BMP280;6279;42.192;24.326;2022-08-30T06:12:54;99008.22;;;28.16
12430;BMP280;6279;42.192;24.326;2022-08-30T06:15:19;99001.16;;;28.67
12430;BMP280;6279;42.192;24.326;2022-08-30T06:17:46;98998.84;;;29.34
12430;BMP280;6279;42.192;24.326;2022-08-30T06:20:12;99004.94;;;30.04
12430;BMP280;6279;42.192;24.326;2022-08-30T06:22:38;99004.81;;;30.63
12430;BMP280;6279;42.192;24.326;2022-08-30T06:25:04;99013.84;;;30.98
12430;BMP280;6279;42.192;24.326;2022-08-30T06:27:29;99006.31;;;31.27
12430;BMP280;6279;42.192;24.326;2022-08-30T06:29:55;99010.22;;;31.87
12430;BMP280;6279;42.192;24.326;2022-08-30T06:32:21;99011.31;;;32.55
12430;BMP280;6279;42.192;24.326;2022-08-30T06:34:46;99014.72;;;32.69
12430;BMP280;6279;42.192;24.326;2022-08-30T06:37:12;99017.00;;;32.75
12430;BMP280;6279;42.192;24.326;2022-08-30T06:39:38;99016.09;;;32.88
12430;BMP280;6279;42.192;24.326;2022-08-30T06:42:03;99014.88;;;33.15
12430;BMP280;6279;42.192;24.326;2022-08-30T06:44:29;99006.78;;;33.53
12430;BMP280;6279;42.192;24.326;2022-08-30T06:46:54;99010.56;;;34.07
12430;BMP280;6279;42.192;24.326;2022-08-30T06:49:20;99010.41;;;34.04
12430;BMP280;6279;42.192;24.326;2022-08-30T06:51:45;99010.31;;;33.79
12430;BMP280;6279;42.192;24.326;2022-08-30T06:54:11;99008.38;;;33.16
12430;BMP280;6279;42.192;24.326;2022-08-30T06:56:38;99007.28;;;32.96
12430;BMP280;6279;42.192;24.326;2022-08-30T06:59:04;99005.22;;;32.93
12430;BMP280;6279;42.192;24.326;2022-08-30T07:01:30;99010.44;;;32.68
12430;BMP280;6279;42.192;24.326;2022-08-30T07:03:56;99012.03;;;32.69
12430;BMP280;6279;42.192;24.326;2022-08-30T07:06:23;99002.72;;;32.75
12430;BMP280;6279;42.192;24.326;2022-08-30T07:08:49;99007.91;;;32.50
12430;BMP280;6279;42.192;24.326;2022-08-30T07:11:24;99002.69;;;32.32
12430;BMP280;6279;42.192;24.326;2022-08-30T07:13:50;99005.00;;;32.38
12430;BMP280;6279;42.192;24.326;2022-08-30T07:16:15;99002.78;;;32.83
12430;BMP280;6279;42.192;24.326;2022-08-30T07:18:41;99001.38;;;33.15
12430;BMP280;6279;42.192;24.326;2022-08-30T07:21:18;98997.63;;;33.71
12430;BMP280;6279;42.192;24.326;2022-08-30T07:23:46;99003.84;;;33.88
12430;BMP280;6279;42.192;24.326;2022-08-30T07:26:16;99003.75;;;34.01
12430;BMP280;6279;42.192;24.326;2022-08-30T07:28:43;99004.34;;;33.98
12430;BMP280;6279;42.192;24.326;2022-08-30T07:31:10;99007.97;;;33.86
12430;BMP280;6279;42.192;24.326;2022-08-30T07:33:37;98998.13;;;33.90
12430;BMP280;6279;42.192;24.326;2022-08-30T07:36:04;98991.13;;;33.97
12430;BMP280;6279;42.192;24.326;2022-08-30T07:38:31;99003.53;;;33.90
12430;BMP280;6279;42.192;24.326;2022-08-30T07:40:56;98999.78;;;34.24
12430;BMP280;6279;42.192;24.326;2022-08-30T07:43:28;99004.06;;;35.20
12430;BMP280;6279;42.192;24.326;2022-08-30T07:45:54;99001.44;;;35.76
12430;BMP280;6279;42.192;24.326;2022-08-30T07:48:22;99007.09;;;36.52
12430;BMP280;6279;42.192;24.326;2022-08-30T07:50:47;99008.34;;;37.18
12430;BMP280;6279;42.192;24.326;2022-08-30T07:53:13;99004.66;;;37.81
12430;BMP280;6279;42.192;24.326;2022-08-30T07:55:39;99010.22;;;38.62
12430;BMP280;6279;42.192;24.326;2022-08-30T07:58:05;99007.28;;;39.24
12430;BMP280;6279;42.192;24.326;2022-08-30T08:00:30;99013.47;;;40.34
12430;BMP280;6279;42.192;24.326;2022-08-30T08:02:56;98998.91;;;40.26
12430;BMP280;6279;42.192;24.326;2022-08-30T08:05:21;99008.78;;;39.82
12430;BMP280;6279;42.192;24.326;2022-08-30T08:07:46;99015.63;;;39.61
12430;BMP280;6279;42.192;24.326;2022-08-30T08:10:12;99009.84;;;39.47
12430;BMP280;6279;42.192;24.326;2022-08-30T08:12:39;99009.13;;;39.20
12430;BMP280;6279;42.192;24.326;2022-08-30T08:15:05;99012.47;;;38.44
12430;BMP280;6279;42.192;24.326;2022-08-30T08:17:31;99006.22;;;37.70
12430;BMP280;6279;42.192;24.326;2022-08-30T08:19:56;98997.19;;;37.78
12430;BMP280;6279;42.192;24.326;2022-08-30T08:22:21;98998.38;;;38.54
12430;BMP280;6279;42.192;24.326;2022-08-30T08:24:48;98987.59;;;39.15
12430;BMP280;6279;42.192;24.326;2022-08-30T08:27:13;98993.97;;;39.19
12430;BMP280;6279;42.192;24.326;2022-08-30T08:29:38;99003.03;;;38.81
12430;BMP280;6279;42.192;24.326;2022-08-30T08:32:04;98991.81;;;39.88
12430;BMP280;6279;42.192;24.326;2022-08-30T08:34:29;98990.19;;;40.77
12430;BMP280;6279;42.192;24.326;2022-08-30T08:36:55;98985.84;;;40.91
12430;BMP280;6279;42.192;24.326;2022-08-30T08:39:20;98986.69;;;42.12
12430;BMP280;6279;42.192;24.326;2022-08-30T08:49:49;98991.09;;;44.19
12430;BMP280;6279;42.192;24.326;2022-08-30T08:55:25;98982.66;;;46.43
12430;BMP280;6279;42.192;24.326;2022-08-30T08:57:51;98979.50;;;46.41
12430;BMP280;6279;42.192;24.326;2022-08-30T09:00:17;98982.81;;;45.60
12430;BMP280;6279;42.192;24.326;2022-08-30T09:02:46;98985.16;;;45.58
12430;BMP280;6279;42.192;24.326;2022-08-30T09:05:21;98977.13;;;46.49
12430;BMP280;6279;42.192;24.326;2022-08-30T09:07:49;98973.34;;;46.03
12430;BMP280;6279;42.192;24.326;2022-08-30T09:10:17;98975.75;;;45.80
12430;BMP280;6279;42.192;24.326;2022-08-30T09:12:42;98969.06;;;45.84
12430;BMP280;6279;42.192;24.326;2022-08-30T09:15:15;98969.44;;;45.76
12430;BMP280;6279;42.192;24.326;2022-08-30T09:18:10;98971.81;;;45.74
12430;BMP280;6279;42.192;24.326;2022-08-30T09:20:41;98959.56;;;46.16
12430;BMP280;6279;42.192;24.326;2022-08-30T09:31:20;98952.38;;;46.43
12430;BMP280;6279;42.192;24.326;2022-08-30T09:36:26;98948.13;;;46.95
12430;BMP280;6279;42.192;24.326;2022-08-30T09:39:04;98940.34;;;46.03
12430;BMP280;6279;42.192;24.326;2022-08-30T09:41:39;98939.00;;;46.41
12430;BMP280;6279;42.192;24.326;2022-08-30T09:44:19;98938.22;;;46.44
12430;BMP280;6279;42.192;24.326;2022-08-30T09:46:53;98937.97;;;45.98
12430;BMP280;6279;42.192;24.326;2022-08-30T09:49:39;98924.41;;;46.54
12430;BMP280;6279;42.192;24.326;2022-08-30T09:52:32;98928.22;;;47.67
12430;BMP280;6279;42.192;24.326;2022-08-30T09:55:14;98932.28;;;47.59
12430;BMP280;6279;42.192;24.326;2022-08-30T09:58:07;98922.91;;;46.33
12430;BMP280;6279;42.192;24.326;2022-08-30T10:00:48;98915.41;;;47.50
12430;BMP280;6279;42.192;24.326;2022-08-30T10:08:41;98925.56;;;49.33
12430;BMP280;6279;42.192;24.326;2022-08-30T10:11:20;98914.16;;;49.53
12430;BMP280;6279;42.192;24.326;2022-08-30T10:16:59;98903.88;;;48.27
12430;BMP280;6279;42.192;24.326;2022-08-30T10:24:30;98898.28;;;48.34
12430;BMP280;6279;42.192;24.326;2022-08-30T10:27:09;98894.78;;;48.60
12430;BMP280;6279;42.192;24.326;2022-08-30T10:29:49;98896.88;;;48.52
12430;BMP280;6279;42.192;24.326;2022-08-30T10:32:27;98898.22;;;47.72
12430;BMP280;6279;42.192;24.326;2022-08-30T10:35:18;98892.16;;;47.51
12430;BMP280;6279;42.192;24.326;2022-08-30T10:37:48;98890.34;;;47.78
12430;BMP280;6279;42.192;24.326;2022-08-30T10:40:20;98879.47;;;48.26
12430;BMP280;6279;42.192;24.326;2022-08-30T10:43:18;98878.50;;;48.39
12430;BMP280;6279;42.192;24.326;2022-08-30T10:45:47;98878.41;;;48.72
12430;BMP280;6279;42.192;24.326;2022-08-30T10:48:26;98877.28;;;48.70
12430;BMP280;6279;42.192;24.326;2022-08-30T10:50:55;98874.78;;;47.94
12430;BMP280;6279;42.192;24.326;2022-08-30T10:53:29;98872.06;;;47.87
12430;BMP280;6279;42.192;24.326;2022-08-30T10:56:08;98868.41;;;47.64
12430;BMP280;6279;42.192;24.326;2022-08-30T10:58:37;98855.78;;;47.99
12430;BMP280;6279;42.192;24.326;2022-08-30T11:12:26;98863.59;;;46.25
12430;BMP280;6279;42.192;24.326;2022-08-30T11:14:53;98856.81;;;45.42
12430;BMP280;6279;42.192;24.326;2022-08-30T11:17:30;98848.19;;;44.82
12430;BMP280;6279;42.192;24.326;2022-08-30T11:19:59;98857.88;;;44.21
12430;BMP280;6279;42.192;24.326;2022-08-30T11:22:35;98857.28;;;43.15
12430;BMP280;6279;42.192;24.326;2022-08-30T11:25:12;98852.19;;;42.71
12430;BMP280;6279;42.192;24.326;2022-08-30T11:35:48;98845.63;;;40.55
12430;BMP280;6279;42.192;24.326;2022-08-30T11:48:50;98840.31;;;40.02
12430;BMP280;6279;42.192;24.326;2022-08-30T11:51:51;98843.56;;;39.89
12430;BMP280;6279;42.192;24.326;2022-08-30T12:00:38;98828.94;;;39.78
12430;BMP280;6279;42.192;24.326;2022-08-30T12:03:06;98823.34;;;40.09
12430;BMP280;6279;42.192;24.326;2022-08-30T12:05:56;98835.59;;;39.81
12430;BMP280;6279;42.192;24.326;2022-08-30T12:18:46;98807.69;;;39.69
12430;BMP280;6279;42.192;24.326;2022-08-30T12:26:40;98800.81;;;40.34
12430;BMP280;6279;42.192;24.326;2022-08-30T12:29:21;98797.34;;;40.15
12430;BMP280;6279;42.192;24.326;2022-08-30T12:31:52;98799.78;;;40.20
12430;BMP280;6279;42.192;24.326;2022-08-30T12:37:35;98808.41;;;39.66
12430;BMP280;6279;42.192;24.326;2022-08-30T12:42:31;98798.63;;;40.02
12430;BMP280;6279;42.192;24.326;2022-08-30T12:45:05;98799.81;;;39.82
12430;BMP280;6279;42.192;24.326;2022-08-30T12:47:41;98791.41;;;39.35
12430;BMP280;6279;42.192;24.326;2022-08-30T12:50:08;98791.81;;;39.03
12430;BMP280;6279;42.192;24.326;2022-08-30T12:52:38;98791.56;;;38.32
12430;BMP280;6279;42.192;24.326;2022-08-30T12:55:27;98786.84;;;37.60
12430;BMP280;6279;42.192;24.326;2022-08-30T12:58:04;98787.03;;;36.93
12430;BMP280;6279;42.192;24.326;2022-08-30T13:00:33;98790.00;;;36.88
12430;BMP280;6279;42.192;24.326;2022-08-30T13:05:46;98787.50;;;36.48
12430;BMP280;6279;42.192;24.326;2022-08-30T13:08:48;98798.88;;;36.10
12430;BMP280;6279;42.192;24.326;2022-08-30T13:13:46;98826.81;;;33.95
12430;BMP280;6279;42.192;24.326;2022-08-30T13:16:26;98833.66;;;29.25
12430;BMP280;6279;42.192;24.326;2022-08-30T13:19:33;98879.69;;;24.47
12430;BMP280;6279;42.192;24.326;2022-08-30T13:22:00;98963.75;;;22.33
12430;BMP280;6279;42.192;24.326;2022-08-30T13:24:26;98995.84;;;20.88
12430;BMP280;6279;42.192;24.326;2022-08-30T13:26:54;98995.50;;;19.88
12430;BMP280;6279;42.192;24.326;2022-08-30T13:29:24;99017.25;;;19.73
12430;BMP280;6279;42.192;24.326;2022-08-30T13:31:50;99012.28;;;19.12
12430;BMP280;6279;42.192;24.326;2022-08-30T13:34:15;98988.16;;;19.44
12430;BMP280;6279;42.192;24.326;2022-08-30T13:36:48;98957.47;;;19.49
12430;BMP280;6279;42.192;24.326;2022-08-30T13:39:14;98938.53;;;19.70
12430;BMP280;6279;42.192;24.326;2022-08-30T13:41:41;98931.66;;;19.80
12430;BMP280;6279;42.192;24.326;2022-08-30T13:44:06;98912.63;;;20.00
12430;BMP280;6279;42.192;24.326;2022-08-30T13:46:32;98897.97;;;20.16
12430;BMP280;6279;42.192;24.326;2022-08-30T13:49:02;98895.00;;;20.46
12430;BMP280;6279;42.192;24.326;2022-08-30T13:51:29;98894.56;;;20.87
12430;BMP280;6279;42.192;24.326;2022-08-30T13:53:54;98886.56;;;21.21
12430;BMP280;6279;42.192;24.326;2022-08-30T13:56:20;98871.53;;;21.38
12430;BMP280;6279;42.192;24.326;2022-08-30T13:58:45;98869.69;;;21.82
12430;BMP280;6279;42.192;24.326;2022-08-30T14:01:11;98852.91;;;22.09
12430;BMP280;6279;42.192;24.326;2022-08-30T14:03:36;98835.38;;;22.24
12430;BMP280;6279;42.192;24.326;2022-08-30T14:06:02;98830.91;;;22.45
12430;BMP280;6279;42.192;24.326;2022-08-30T14:08:29;98829.50;;;22.59
12430;BMP280;6279;42.192;24.326;2022-08-30T14:10:56;98834.31;;;22.62
12430;BMP280;6279;42.192;24.326;2022-08-30T14:13:23;98834.22;;;22.94
12430;BMP280;6279;42.192;24.326;2022-08-30T14:15:50;98826.13;;;23.31
12430;BMP280;6279;42.192;24.326;2022-08-30T14:18:16;98813.28;;;23.45
12430;BMP280;6279;42.192;24.326;2022-08-30T14:20:42;98799.16;;;23.70
12430;BMP280;6279;42.192;24.326;2022-08-30T14:23:07;98808.22;;;24.10
12430;BMP280;6279;42.192;24.326;2022-08-30T14:25:34;98800.97;;;24.41
12430;BMP280;6279;42.192;24.326;2022-08-30T14:28:00;98809.81;;;24.61
12430;BMP280;6279;42.192;24.326;2022-08-30T14:30:25;98797.31;;;24.62
12430;BMP280;6279;42.192;24.326;2022-08-30T14:32:51;98794.13;;;24.64
12430;BMP280;6279;42.192;24.326;2022-08-30T14:35:17;98798.13;;;24.67
12430;BMP280;6279;42.192;24.326;2022-08-30T14:37:45;98800.78;;;24.57
12430;BMP280;6279;42.192;24.326;2022-08-30T14:40:11;98809.19;;;24.35
12430;BMP280;6279;42.192;24.326;2022-08-30T14:42:36;98806.53;;;24.35
12430;BMP280;6279;42.192;24.326;2022-08-30T14:45:05;98810.06;;;24.55
12430;BMP280;6279;42.192;24.326;2022-08-30T14:47:31;98806.19;;;24.72
12430;BMP280;6279;42.192;24.326;2022-08-30T14:49:57;98813.16;;;24.92
12430;BMP280;6279;42.192;24.326;2022-08-30T14:52:25;98801.78;;;25.11
12430;BMP280;6279;42.192;24.326;2022-08-30T14:54:50;98798.34;;;25.30
12430;BMP280;6279;42.192;24.326;2022-08-30T14:57:16;98793.88;;;25.51
12430;BMP280;6279;42.192;24.326;2022-08-30T14:59:41;98789.59;;;25.79
12430;BMP280;6279;42.192;24.326;2022-08-30T15:02:07;98786.16;;;25.98
12430;BMP280;6279;42.192;24.326;2022-08-30T15:04:32;98782.91;;;26.16
12430;BMP280;6279;42.192;24.326;2022-08-30T15:06:58;98787.41;;;26.35
12430;BMP280;6279;42.192;24.326;2022-08-30T15:09:24;98787.34;;;26.44
12430;BMP280;6279;42.192;24.326;2022-08-30T15:11:51;98789.19;;;26.59
12430;BMP280;6279;42.192;24.326;2022-08-30T15:14:17;98784.59;;;26.74
12430;BMP280;6279;42.192;24.326;2022-08-30T15:16:42;98783.50;;;26.85
12430;BMP280;6279;42.192;24.326;2022-08-30T15:19:09;98785.31;;;26.89
12430;BMP280;6279;42.192;24.326;2022-08-30T15:21:42;98784.72;;;26.97
12430;BMP280;6279;42.192;24.326;2022-08-30T15:24:10;98783.13;;;27.01
12430;BMP280;6279;42.192;24.326;2022-08-30T15:26:36;98783.38;;;27.04
12430;BMP280;6279;42.192;24.326;2022-08-30T15:29:06;98776.91;;;27.10
12430;BMP280;6279;42.192;24.326;2022-08-30T15:31:32;98781.41;;;27.14
12430;BMP280;6279;42.192;24.326;2022-08-30T15:33:58;98782.75;;;27.22
12430;BMP280;6279;42.192;24.326;2022-08-30T15:36:24;98789.38;;;27.29
12430;BMP280;6279;42.192;24.326;2022-08-30T15:38:53;98797.66;;;27.28
12430;BMP280;6279;42.192;24.326;2022-08-30T15:41:20;98785.09;;;27.28
12430;BMP280;6279;42.192;24.326;2022-08-30T15:43:49;98786.94;;;27.32
12430;BMP280;6279;42.192;24.326;2022-08-30T15:46:22;98791.81;;;27.26
12430;BMP280;6279;42.192;24.326;2022-08-30T15:48:50;98789.16;;;27.16
12430;BMP280;6279;42.192;24.326;2022-08-30T15:51:16;98789.28;;;26.96
12430;BMP280;6279;42.192;24.326;2022-08-30T15:53:45;98779.25;;;26.74
12430;BMP280;6279;42.192;24.326;2022-08-30T15:56:11;98784.38;;;26.65
12430;BMP280;6279;42.192;24.326;2022-08-30T15:58:37;98783.06;;;26.58